Slave Lake Airport
CYZH : now visible

Airfield :











YOU CAN JOIN US ON...

 
LOGIN :

Register | Disclaimer

   EN    FR    IT 

 









Legend :    VFR   Marginal VFR   IFR   Intensive IFR   Very Intensive IFR
Visi :
Ceiling :
>= 8 km
>= 3000ft
5 to 8 km
1000 to 3000 ft
1500m to 5 km
500 to 1000 ft
800 to 1500m
200 to 500 ft
< 800m
< 200 ft
Symbols :   Thunderstorms  Fog  Heavy snow  Heavy precipitations  Wind > 20 kt







- Airport Elevation : 1912 ft
- IATA code : YZH


CYZH - Slave Lake

CURRENT METAR :
  • 260411Z AUTO 25007KT 9SM FEW085 SCT110 SCT140 11/10 A2994 RMK SLP151

EXPIRED METARs :
  • 260400Z AUTO 26008KT 9SM -RA FEW055 BKN078 OVC110 11/10 A2994 RMK SLP151
  • 260300Z AUTO 31013G23KT 8SM RA OVC060 13/10 A2994 RMK SLP150 DENSITY ALT 2000FT
  • 260256Z AUTO 31011G23KT 6SM -RA BR OVC060 13/11 A2994 RMK SLP151 DENSITY ALT 2000FT
  • 260248Z AUTO 29016G27KT 5SM -RA BR FEW024 OVC055 12/11 A2994 RMK SLP152 DENSITY ALT 2000FT
  • 260233Z AUTO 28015G23KT 6SM RA BR FEW023 SCT036 BKN044 OVC055 12/10 A2994 RMK SLP151 DENSITY ALT 2000FT
  • 260228Z AUTO 27018G23KT 8SM RA SCT023 BKN036 BKN050 OVC075 12/10 A2993 RMK SLP149 DENSITY ALT 2000FT
  • 260200Z AUTO 30008KT 9SM -RA BKN070 OVC081 13/09 A2992 RMK LTNG DIST E SE SLP142 DENSITY ALT 2100FT
  • 260154Z AUTO 30009G16KT 270V360 9SM -RA SCT060 OVC077 13/09 A2992 RMK LTNG DIST E SE SLP143 DENSITY ALT 2100FT
  • 260134Z AUTO 30018G31KT 9SM -RA VCTS FEW036 SCT049 BKN055 BKN071 14/10 A2990 RMK LTNG DIST ALQDS PRESRR SLP137 DENSITY ALT 2200FT

TAF TAF CYZH
Valid from the 26 at 01:00 until the 26 at 13:00 UTC


260038Z 2601/2613 27015G25KT P6SM SCT060
TEMPO 2601/2603 VRB15G25KT 5SM TSRA BKN050CB
FM260300 29015G25KT P6SM SCT030 BKN080
BECMG 2604/2606 29012KT
FM260900 29012KT P6SM SCT012 BKN030
TEMPO 2609/2613 SCT008 BKN012 OVC030 RMK FCST BASED ON AUTO OBS. NXT FCST BY 260700Z
No reported NOTAMs for that airfield.



MET'MAP, your aeronautical weather chart ! - Copyright ORBIFLY December 2007 - Disclaimer

ORBIFLY MET'MAP TEAM :

Programming & Development : Alexandra Zaïnal
Concept & Development : Baudouin d'Aumeries
Co-Development & Prog : Marc-Olivier Méhu
Technical & hardware support : Manuel Goepfert

Contact : metmap@orbifly.com




SOURCES & CREDITS :

   NOAA       Earth
Advisory